Time;durP1;ratioP1;P1;durP2;ratioP2;P2;SDS_P1;SDS_P2;PMS_P1;PMS_P2;Temp;Humidity;BMP_temperature;BMP_pressure;BME280_temperature;BME280_humidity;BME280_pressure;Samples;Min_cycle;Max_cycle;Signal;HPM_P1;HPM_P2
2023/09/11 00:00:34;;;;;;;0.50;0.30;;;21.90;99.90;;;;;;5074276;28;20451;-80
2023/09/11 00:03:01;;;;;;;0.50;0.30;;;21.80;99.90;;;;;;5073796;28;20466;-80
2023/09/11 00:05:28;;;;;;;0.50;0.40;;;21.80;99.90;;;;;;5073914;28;20443;-80
2023/09/11 00:07:56;;;;;;;0.50;0.40;;;21.80;99.90;;;;;;5073786;28;20444;-81
2023/09/11 00:10:23;;;;;;;0.50;0.37;;;21.80;99.90;;;;;;5074199;28;20439;-80
2023/09/11 00:12:49;;;;;;;0.50;0.30;;;21.80;99.90;;;;;;5073618;28;20466;-81
2023/09/11 00:15:16;;;;;;;0.50;0.30;;;21.80;99.90;;;;;;5073748;28;20449;-81
2023/09/11 00:17:44;;;;;;;0.50;0.37;;;21.90;99.90;;;;;;5074265;28;20505;-79
2023/09/11 00:20:12;;;;;;;0.50;0.40;;;21.90;99.90;;;;;;5073740;28;20436;-80
2023/09/11 00:22:39;;;;;;;0.50;0.30;;;21.90;99.90;;;;;;5074353;28;20904;-80
2023/09/11 00:25:08;;;;;;;0.50;0.30;;;21.80;99.90;;;;;;5073454;28;20446;-79
2023/09/11 00:27:36;;;;;;;0.50;0.40;;;21.90;99.90;;;;;;5074207;28;20450;-81
2023/09/11 00:30:03;;;;;;;0.50;0.30;;;21.90;99.90;;;;;;5073658;28;20450;-81
2023/09/11 00:32:30;;;;;;;0.50;0.30;;;21.90;99.90;;;;;;5073656;28;20494;-80
2023/09/11 00:34:56;;;;;;;0.50;0.30;;;21.90;99.90;;;;;;5073407;28;20443;-81
2023/09/11 00:37:24;;;;;;;0.50;0.30;;;21.90;99.90;;;;;;5073757;28;21003;-80
2023/09/11 00:39:50;;;;;;;0.50;0.30;;;21.90;99.90;;;;;;5073652;28;20452;-80
2023/09/11 00:42:18;;;;;;;0.50;0.30;;;21.90;99.90;;;;;;5073611;28;20463;-81
2023/09/11 00:44:45;;;;;;;0.50;0.30;;;21.90;99.90;;;;;;5073609;28;20449;-80
2023/09/11 00:47:12;;;;;;;0.50;0.30;;;21.90;99.90;;;;;;5068245;28;20783;-80
2023/09/11 00:49:40;;;;;;;0.50;0.30;;;21.80;99.90;;;;;;5073572;28;20439;-79
2023/09/11 00:52:07;;;;;;;0.50;0.30;;;21.80;99.90;;;;;;5072931;28;20463;-81
2023/09/11 00:54:34;;;;;;;0.50;0.30;;;21.80;99.90;;;;;;5073068;28;20442;-80
2023/09/11 00:57:01;;;;;;;0.50;0.30;;;21.80;99.90;;;;;;5073328;28;20972;-79
2023/09/11 00:59:29;;;;;;;0.50;0.30;;;21.80;99.90;;;;;;5073678;28;20451;-80
2023/09/11 01:01:56;;;;;;;0.50;0.30;;;21.80;99.90;;;;;;5073095;28;20561;-78
2023/09/11 01:04:23;;;;;;;0.50;0.30;;;21.70;99.90;;;;;;5072881;28;20452;-81
2023/09/11 01:06:50;;;;;;;0.50;0.30;;;21.70;99.90;;;;;;5071789;28;20458;-79
2023/09/11 01:09:17;;;;;;;0.50;0.30;;;21.70;99.90;;;;;;5073280;28;20436;-81
2023/09/11 01:11:43;;;;;;;0.50;0.40;;;21.60;99.90;;;;;;5072485;28;20469;-80
2023/09/11 01:14:10;;;;;;;0.50;0.30;;;21.50;99.90;;;;;;5072252;28;20444;-81
2023/09/11 01:16:48;;;;;;;0.50;0.30;;;21.50;99.90;;;;;;5073086;28;20960;-80
2023/09/11 01:19:37;;;;;;;0.50;0.40;;;21.40;99.90;;;;;;5072793;28;20802;-80
2023/09/11 01:22:18;;;;;;;0.50;0.30;;;21.40;99.90;;;;;;5072298;28;20458;-80
2023/09/11 01:25:13;;;;;;;0.50;0.30;;;21.30;99.90;;;;;;5072759;28;20436;-80
2023/09/11 01:28:15;;;;;;;0.50;0.30;;;21.30;99.90;;;;;;5089614;28;20519;-81
2023/09/11 01:30:46;;;;;;;0.50;0.30;;;21.20;99.90;;;;;;5084888;28;20450;-80
2023/09/11 01:33:13;;;;;;;0.50;0.30;;;21.20;99.90;;;;;;5069583;28;20462;-80
2023/09/11 01:35:40;;;;;;;0.50;0.30;;;21.10;99.90;;;;;;5069231;28;20917;-81
2023/09/11 01:38:08;;;;;;;0.50;0.30;;;21.00;99.90;;;;;;5069066;28;20447;-79
2023/09/11 01:40:36;;;;;;;0.50;0.30;;;21.00;99.90;;;;;;5069610;28;20433;-81
2023/09/11 01:43:08;;;;;;;0.50;0.30;;;21.00;99.90;;;;;;5069159;28;20457;-80
2023/09/11 01:45:36;;;;;;;0.50;0.30;;;20.90;99.90;;;;;;5069040;28;20445;-80
2023/09/11 01:48:06;;;;;;;0.50;0.30;;;20.90;99.90;;;;;;5068615;28;20441;-80
2023/09/11 01:50:35;;;;;;;0.50;0.40;;;20.90;99.90;;;;;;5068344;28;20448;-80
2023/09/11 01:53:04;;;;;;;0.50;0.30;;;20.80;99.90;;;;;;5068403;28;21002;-80
2023/09/11 01:55:32;;;;;;;0.50;0.40;;;20.80;99.90;;;;;;5068582;28;20567;-80
2023/09/11 01:57:59;;;;;;;0.50;0.30;;;20.80;99.90;;;;;;5068665;28;20449;-80
2023/09/11 02:00:25;;;;;;;0.50;0.30;;;20.80;99.90;;;;;;5068890;28;20444;-81
2023/09/11 02:02:55;;;;;;;0.50;0.30;;;20.70;99.90;;;;;;5068732;28;20461;-81
2023/09/11 02:05:23;;;;;;;0.50;0.30;;;20.70;99.90;;;;;;5067924;28;20455;-80
2023/09/11 02:07:50;;;;;;;0.50;0.30;;;20.70;99.90;;;;;;5072691;28;20919;-81
2023/09/11 02:10:17;;;;;;;0.50;0.30;;;20.70;99.90;;;;;;5070756;28;20441;-81
2023/09/11 02:12:44;;;;;;;0.50;0.30;;;20.70;99.90;;;;;;5069542;28;20513;-81
2023/09/11 02:15:11;;;;;;;0.50;0.30;;;20.60;99.90;;;;;;5068626;28;20531;-80
2023/09/11 02:17:38;;;;;;;0.50;0.30;;;20.60;99.90;;;;;;5069020;28;20444;-81
2023/09/11 02:20:06;;;;;;;0.60;0.53;;;20.60;99.90;;;;;;5068566;28;20445;-81
2023/09/11 02:22:34;;;;;;;0.50;0.30;;;20.60;99.90;;;;;;5069435;28;20566;-81
2023/09/11 02:25:01;;;;;;;0.50;0.30;;;20.50;99.90;;;;;;5068880;28;20443;-79
2023/09/11 02:27:27;;;;;;;0.50;0.30;;;20.50;99.90;;;;;;5068846;28;20496;-81
2023/09/11 02:29:54;;;;;;;0.50;0.30;;;20.50;99.90;;;;;;5068965;28;20792;-81
2023/09/11 02:32:21;;;;;;;0.50;0.40;;;20.50;99.90;;;;;;5068560;28;20461;-81
2023/09/11 02:34:48;;;;;;;0.50;0.30;;;20.50;99.90;;;;;;5068647;28;20447;-81
2023/09/11 02:37:14;;;;;;;0.50;0.30;;;20.50;99.90;;;;;;5066070;28;20905;-81
2023/09/11 02:39:43;;;;;;;0.50;0.30;;;20.50;99.90;;;;;;5055894;28;20468;-81
2023/09/11 02:42:09;;;;;;;0.50;0.30;;;20.50;99.90;;;;;;5055131;28;20472;-79
2023/09/11 02:44:36;;;;;;;0.50;0.30;;;20.40;99.90;;;;;;5054699;28;20524;-81
2023/09/11 02:47:05;;;;;;;0.50;0.30;;;20.40;99.90;;;;;;5054572;28;20479;-81
2023/09/11 02:49:31;;;;;;;0.50;0.30;;;20.40;99.90;;;;;;5055274;28;20621;-81
2023/09/11 02:51:58;;;;;;;0.50;0.30;;;20.40;99.90;;;;;;5054668;28;20855;-79
2023/09/11 02:54:25;;;;;;;0.50;0.30;;;20.40;99.90;;;;;;5053837;28;20814;-80
2023/09/11 02:56:53;;;;;;;0.50;0.30;;;20.40;99.90;;;;;;5054375;28;20789;-80
2023/09/11 02:59:20;;;;;;;0.50;0.30;;;20.40;99.90;;;;;;5053778;28;20439;-81
2023/09/11 03:01:46;;;;;;;0.50;0.30;;;20.40;99.90;;;;;;5053958;28;20457;-80
2023/09/11 03:04:13;;;;;;;0.50;0.30;;;20.40;99.90;;;;;;5053495;28;20437;-80
2023/09/11 03:06:40;;;;;;;0.50;0.37;;;20.40;99.90;;;;;;5054199;28;20523;-80
2023/09/11 03:09:07;;;;;;;0.50;0.30;;;20.40;99.90;;;;;;5054302;28;20440;-78
2023/09/11 03:11:33;;;;;;;0.50;0.30;;;20.40;99.90;;;;;;5053890;28;20454;-80
2023/09/11 03:14:02;;;;;;;0.50;0.40;;;20.40;99.90;;;;;;5053658;28;20454;-78
2023/09/11 03:16:29;;;;;;;0.50;0.30;;;20.40;99.90;;;;;;5054180;28;20436;-81
2023/09/11 03:18:56;;;;;;;0.50;0.40;;;20.30;99.90;;;;;;5054207;28;20440;-81
2023/09/11 03:21:23;;;;;;;0.50;0.30;;;20.30;99.90;;;;;;5055794;28;20466;-80
2023/09/11 03:23:49;;;;;;;1.13;1.03;;;20.30;99.90;;;;;;5054093;28;20444;-79
2023/09/11 03:26:17;;;;;;;0.50;0.37;;;20.30;99.90;;;;;;5053698;28;20480;-81
2023/09/11 03:28:47;;;;;;;0.50;0.40;;;20.30;99.90;;;;;;5053841;28;20854;-81
2023/09/11 03:31:16;;;;;;;0.50;0.30;;;20.30;99.90;;;;;;5054260;28;20453;-81
2023/09/11 03:33:43;;;;;;;0.50;0.30;;;20.30;99.90;;;;;;5053519;28;20444;-81
2023/09/11 03:36:10;;;;;;;0.83;0.83;;;20.30;99.90;;;;;;5053553;28;20444;-81
2023/09/11 03:38:37;;;;;;;0.50;0.37;;;20.30;99.90;;;;;;5054180;28;20950;-81
2023/09/11 03:41:03;;;;;;;0.50;0.30;;;20.30;99.90;;;;;;5055449;28;20444;-81
2023/09/11 03:43:30;;;;;;;0.50;0.37;;;20.30;99.90;;;;;;5055144;28;20919;-81
2023/09/11 03:45:57;;;;;;;0.50;0.40;;;20.30;99.90;;;;;;5056268;28;20881;-81
2023/09/11 03:48:25;;;;;;;0.50;0.30;;;20.30;99.90;;;;;;5055823;28;20475;-80
2023/09/11 03:50:51;;;;;;;0.50;0.40;;;20.30;99.90;;;;;;5054697;28;20447;-81
2023/09/11 03:53:18;;;;;;;0.50;0.30;;;20.20;99.90;;;;;;5053156;28;20457;-81
2023/09/11 03:55:45;;;;;;;0.50;0.30;;;20.20;99.90;;;;;;5053551;28;20442;-81
2023/09/11 03:58:12;;;;;;;0.50;0.40;;;20.10;99.90;;;;;;5053620;28;20439;-82
2023/09/11 04:00:39;;;;;;;0.50;0.30;;;20.10;99.90;;;;;;5054019;28;20436;-82
2023/09/11 04:03:06;;;;;;;0.50;0.40;;;20.00;99.90;;;;;;5048416;28;20480;-81
2023/09/11 04:05:34;;;;;;;0.80;0.80;;;20.00;99.90;;;;;;5052197;28;20454;-81
2023/09/11 04:08:01;;;;;;;0.50;0.30;;;20.00;99.90;;;;;;5052086;28;21034;-80
2023/09/11 04:10:28;;;;;;;0.50;0.30;;;19.90;99.90;;;;;;5052881;28;21027;-82
2023/09/11 04:12:54;;;;;;;0.50;0.30;;;19.90;99.90;;;;;;5053565;28;20468;-81
2023/09/11 04:15:21;;;;;;;0.50;0.30;;;19.80;99.90;;;;;;5052841;28;20446;-82
2023/09/11 04:17:48;;;;;;;0.50;0.30;;;19.80;99.90;;;;;;5053180;28;20444;-81
2023/09/11 04:20:15;;;;;;;0.50;0.30;;;19.80;99.90;;;;;;5053185;28;20446;-81
2023/09/11 04:22:43;;;;;;;0.50;0.30;;;19.80;99.90;;;;;;5053348;28;20468;-81
2023/09/11 04:25:10;;;;;;;0.50;0.37;;;19.70;99.90;;;;;;5052740;28;20445;-82
2023/09/11 04:27:37;;;;;;;0.50;0.30;;;19.70;99.90;;;;;;5044801;28;20484;-81
2023/09/11 04:30:04;;;;;;;0.50;0.30;;;19.70;99.90;;;;;;5053577;28;20456;-81
2023/09/11 04:32:31;;;;;;;0.50;0.40;;;19.70;99.90;;;;;;5052885;28;20847;-80
2023/09/11 04:34:57;;;;;;;0.50;0.30;;;19.60;99.90;;;;;;5052501;28;20502;-81
2023/09/11 04:37:24;;;;;;;0.50;0.30;;;19.60;99.90;;;;;;5053236;28;20439;-81
2023/09/11 04:39:52;;;;;;;0.50;0.30;;;19.60;99.90;;;;;;5052632;28;20227;-81
2023/09/11 04:42:19;;;;;;;0.50;0.40;;;19.60;99.90;;;;;;5053189;28;20547;-81
2023/09/11 04:44:46;;;;;;;0.50;0.30;;;19.50;99.90;;;;;;5052899;28;20959;-81
2023/09/11 04:47:13;;;;;;;0.50;0.30;;;19.50;99.90;;;;;;5051831;28;21006;-80
2023/09/11 04:49:40;;;;;;;0.50;0.30;;;19.50;99.90;;;;;;5052099;28;21138;-81
2023/09/11 04:52:06;;;;;;;0.50;0.30;;;19.50;99.90;;;;;;5052981;28;20479;-81
2023/09/11 04:54:33;;;;;;;0.50;0.40;;;19.50;99.90;;;;;;5051769;28;20447;-81
2023/09/11 04:57:01;;;;;;;0.50;0.50;;;19.50;99.90;;;;;;5052505;28;20443;-80
2023/09/11 04:59:28;;;;;;;0.50;0.40;;;19.50;99.90;;;;;;5053196;28;20445;-81
2023/09/11 05:01:55;;;;;;;0.50;0.30;;;19.50;99.90;;;;;;5052440;28;20978;-80
2023/09/11 05:04:22;;;;;;;0.50;0.30;;;19.40;99.90;;;;;;5052422;28;20492;-80
2023/09/11 05:06:48;;;;;;;0.50;0.30;;;19.40;99.90;;;;;;5052653;28;20844;-80
2023/09/11 05:09:15;;;;;;;0.50;0.30;;;19.40;99.90;;;;;;5052714;28;20445;-79
2023/09/11 05:11:42;;;;;;;0.50;0.40;;;19.30;99.90;;;;;;5052639;28;20467;-80
2023/09/11 05:14:11;;;;;;;0.50;0.30;;;19.30;99.90;;;;;;5052405;28;20445;-80
2023/09/11 05:16:37;;;;;;;0.50;0.40;;;19.30;99.90;;;;;;5052955;28;20453;-80
2023/09/11 05:19:04;;;;;;;0.50;0.30;;;19.30;99.90;;;;;;5052689;28;20448;-80
2023/09/11 05:21:32;;;;;;;0.50;0.37;;;19.30;99.90;;;;;;5053314;28;20844;-80
2023/09/11 05:23:59;;;;;;;0.50;0.40;;;19.30;99.90;;;;;;5052557;28;20444;-81
2023/09/11 05:26:25;;;;;;;0.50;0.30;;;19.30;99.90;;;;;;5052543;28;20452;-80
2023/09/11 05:28:52;;;;;;;0.50;0.40;;;19.30;99.90;;;;;;5052388;28;20469;-81
2023/09/11 05:31:20;;;;;;;0.50;0.30;;;19.40;99.90;;;;;;5053863;28;20460;-81
2023/09/11 05:33:47;;;;;;;1.27;1.27;;;19.40;99.90;;;;;;5052885;28;20948;-80
2023/09/11 05:36:14;;;;;;;0.70;0.70;;;19.40;99.90;;;;;;5053620;28;20446;-80
2023/09/11 05:38:41;;;;;;;0.50;0.30;;;19.50;99.90;;;;;;5053574;28;20432;-81
2023/09/11 05:41:08;;;;;;;0.50;0.30;;;19.50;99.90;;;;;;5054269;28;20947;-81
2023/09/11 05:43:36;;;;;;;0.50;0.30;;;19.60;99.90;;;;;;5053871;28;20455;-80
2023/09/11 05:46:03;;;;;;;0.50;0.30;;;19.70;99.90;;;;;;5054332;28;20475;-81
2023/09/11 05:48:31;;;;;;;0.50;0.30;;;19.80;99.90;;;;;;5053752;28;20476;-81
2023/09/11 05:50:58;;;;;;;0.50;0.30;;;19.90;99.90;;;;;;5054511;28;20448;-80
2023/09/11 05:53:25;;;;;;;0.50;0.30;;;20.00;99.90;;;;;;5053310;28;20924;-80
2023/09/11 05:55:51;;;;;;;0.50;0.40;;;20.10;99.90;;;;;;5068567;22;20440;-81
2023/09/11 05:58:18;;;;;;;0.50;0.30;;;20.20;99.90;;;;;;5030313;28;20450;-81
2023/09/11 06:00:45;;;;;;;0.50;0.30;;;20.40;99.90;;;;;;5036086;28;20840;-80
2023/09/11 06:03:12;;;;;;;0.60;0.57;;;20.70;99.90;;;;;;5035951;28;20450;-81
2023/09/11 06:05:40;;;;;;;0.50;0.40;;;20.80;99.90;;;;;;5035449;28;20813;-80
2023/09/11 06:08:07;;;;;;;0.50;0.30;;;21.10;99.90;;;;;;5035984;28;20501;-81
2023/09/11 06:10:35;;;;;;;0.50;0.40;;;21.30;99.90;;;;;;5035946;28;20506;-80
2023/09/11 06:13:02;;;;;;;1.13;0.97;;;21.50;99.90;;;;;;5036728;28;20721;-79
2023/09/11 06:15:29;;;;;;;0.50;0.30;;;21.70;99.90;;;;;;5039033;28;20562;-80
2023/09/11 06:17:56;;;;;;;0.50;0.30;;;22.00;99.90;;;;;;5034180;28;20455;-80
2023/09/11 06:20:22;;;;;;;0.50;0.40;;;22.40;99.90;;;;;;5019753;28;20445;-81
2023/09/11 06:22:51;;;;;;;2.43;2.23;;;22.70;99.90;;;;;;5031905;28;20450;-80
2023/09/11 06:25:17;;;;;;;0.50;0.30;;;22.80;99.90;;;;;;5039612;28;20436;-81
2023/09/11 06:27:44;;;;;;;0.50;0.40;;;23.00;99.90;;;;;;5039238;28;20483;-80
2023/09/11 06:30:12;;;;;;;0.50;0.30;;;23.20;99.90;;;;;;5039644;28;20471;-81
2023/09/11 06:32:38;;;;;;;0.50;0.30;;;23.70;99.90;;;;;;5038801;28;20448;-80
2023/09/11 06:35:06;;;;;;;0.50;0.30;;;24.20;99.90;;;;;;5031625;28;20431;-80
2023/09/11 06:37:33;;;;;;;8.33;7.97;;;24.70;99.90;;;;;;5026059;28;20558;-79
2023/09/11 06:40:01;;;;;;;0.50;0.30;;;25.30;99.90;;;;;;5039540;28;20447;-80
2023/09/11 06:42:28;;;;;;;0.50;0.30;;;25.80;99.90;;;;;;5039439;28;20536;-80
2023/09/11 06:44:55;;;;;;;0.50;0.30;;;26.30;99.90;;;;;;5038766;28;20450;-80
2023/09/11 06:47:22;;;;;;;0.50;0.30;;;27.00;99.90;;;;;;5039121;28;20479;-80
2023/09/11 06:49:49;;;;;;;0.50;0.30;;;27.20;99.90;;;;;;5015070;28;20437;-80
2023/09/11 06:52:16;;;;;;;0.70;0.60;;;27.50;99.90;;;;;;5039071;28;20778;-82
2023/09/11 06:54:43;;;;;;;0.50;0.30;;;27.70;99.90;;;;;;5038368;28;20435;-80
2023/09/11 06:57:11;;;;;;;0.50;0.30;;;27.90;99.90;;;;;;5032869;28;20494;-81
2023/09/11 06:59:37;;;;;;;0.50;0.30;;;28.40;99.90;;;;;;5037604;28;20862;-81
2023/09/11 07:02:05;;;;;;;0.80;0.73;;;28.90;99.90;;;;;;5038431;28;20449;-80
2023/09/11 07:04:31;;;;;;;0.50;0.30;;;29.00;99.90;;;;;;5037583;28;20534;-80
2023/09/11 07:06:59;;;;;;;2.87;2.67;;;29.40;99.90;;;;;;5030247;28;20473;-80
2023/09/11 07:09:26;;;;;;;0.50;0.30;;;29.60;99.90;;;;;;5038642;28;20478;-80
2023/09/11 07:11:53;;;;;;;0.50;0.40;;;29.60;99.90;;;;;;5027155;28;20446;-81
2023/09/11 07:14:22;;;;;;;4.00;1.53;;;30.00;99.90;;;;;;5035086;28;20529;-81
2023/09/11 07:16:49;;;;;;;0.50;0.30;;;30.30;99.90;;;;;;5038543;28;20461;-81
2023/09/11 07:19:16;;;;;;;0.50;0.30;;;30.70;99.90;;;;;;5039642;28;20444;-81
2023/09/11 07:21:44;;;;;;;0.50;0.30;;;30.80;99.90;;;;;;5038079;28;20446;-78
2023/09/11 07:24:11;;;;;;;0.50;0.30;;;30.80;99.90;;;;;;5037599;28;20442;-81
2023/09/11 07:26:37;;;;;;;0.50;0.30;;;30.70;99.90;;;;;;5037892;28;20462;-79
2023/09/11 07:29:04;;;;;;;0.50;0.30;;;30.90;99.90;;;;;;5032768;28;20479;-81
2023/09/11 07:31:33;;;;;;;0.50;0.30;;;31.20;99.90;;;;;;5035499;28;20482;-81
2023/09/11 07:34:00;;;;;;;0.70;0.70;;;31.50;99.90;;;;;;5037812;28;20450;-81
2023/09/11 07:36:28;;;;;;;0.50;0.30;;;31.90;99.90;;;;;;5037931;28;20458;-80
2023/09/11 07:38:55;;;;;;;0.50;0.30;;;32.50;99.70;;;;;;5018946;28;20442;-80
2023/09/11 07:41:23;;;;;;;0.50;0.30;;;32.80;99.90;;;;;;5025688;28;21067;-81
2023/09/11 07:43:50;;;;;;;0.50;0.50;;;33.10;96.60;;;;;;5029580;28;20441;-80
2023/09/11 07:46:17;;;;;;;0.50;0.30;;;32.90;92.90;;;;;;5037652;28;20490;-81
2023/09/11 07:48:45;;;;;;;0.50;0.40;;;32.90;94.10;;;;;;5038384;28;20605;-80
2023/09/11 07:51:12;;;;;;;0.40;0.30;;;33.00;95.90;;;;;;5038849;28;20447;-81
2023/09/11 07:53:39;;;;;;;0.50;0.30;;;33.10;96.50;;;;;;5030039;28;20443;-81
2023/09/11 07:56:07;;;;;;;0.97;0.97;;;33.50;94.70;;;;;;5029699;28;20472;-82
2023/09/11 07:58:33;;;;;;;0.50;0.30;;;34.00;93.50;;;;;;5029694;28;20977;-81
2023/09/11 08:01:00;;;;;;;0.60;0.57;;;34.20;89.30;;;;;;5038775;28;20442;-82
2023/09/11 08:03:27;;;;;;;0.50;0.30;;;34.20;91.60;;;;;;5038248;28;20941;-80
2023/09/11 08:05:55;;;;;;;3.33;3.13;;;34.10;86.20;;;;;;5037734;28;20436;-82
2023/09/11 08:08:22;;;;;;;0.50;0.50;;;34.00;89.20;;;;;;5031440;28;20471;-82
2023/09/11 08:10:48;;;;;;;0.47;0.30;;;34.40;90.30;;;;;;5037301;28;20439;-82
2023/09/11 08:13:15;;;;;;;0.40;0.30;;;34.60;83.90;;;;;;5038170;28;20457;-81
2023/09/11 08:15:42;;;;;;;0.40;0.30;;;34.60;84.70;;;;;;5037666;28;20455;-80
2023/09/11 08:18:09;;;;;;;0.50;0.30;;;34.80;85.20;;;;;;5037604;28;20442;-81
2023/09/11 08:20:36;;;;;;;0.40;0.30;;;34.90;84.70;;;;;;5028979;28;20537;-83
2023/09/11 08:23:05;;;;;;;0.40;0.30;;;35.30;84.60;;;;;;5029200;28;20504;-81
2023/09/11 08:25:31;;;;;;;0.40;0.40;;;35.80;81.10;;;;;;5037504;28;20446;-81
2023/09/11 08:27:58;;;;;;;1.20;0.97;;;36.10;79.30;;;;;;5029567;28;20482;-82
2023/09/11 08:30:25;;;;;;;0.40;0.30;;;36.20;75.90;;;;;;5037900;28;20451;-82
2023/09/11 08:32:52;;;;;;;0.70;0.50;;;36.30;75.30;;;;;;5029071;28;20447;-82
2023/09/11 08:35:19;;;;;;;4.73;0.60;;;36.50;75.50;;;;;;5037237;28;20963;-81
2023/09/11 08:37:46;;;;;;;3.20;3.00;;;35.70;73.10;;;;;;5036709;28;20474;-81
2023/09/11 08:40:14;;;;;;;0.40;0.30;;;34.90;78.00;;;;;;5036777;28;20442;-81
2023/09/11 08:42:41;;;;;;;0.40;0.30;;;35.30;75.80;;;;;;5037171;28;20441;-81
2023/09/11 08:45:08;;;;;;;0.40;0.30;;;35.70;76.70;;;;;;5037006;28;20444;-82
2023/09/11 08:47:36;;;;;;;0.40;0.30;;;36.00;76.10;;;;;;5028730;28;20531;-81
2023/09/11 08:50:07;;;;;;;0.40;0.30;;;36.40;73.50;;;;;;5033181;28;20435;-82
2023/09/11 08:52:35;;;;;;;0.40;0.30;;;36.70;75.10;;;;;;5025170;28;20443;-80
2023/09/11 08:55:08;;;;;;;1.37;1.27;;;37.00;74.90;;;;;;5036481;28;20434;-82
2023/09/11 08:57:39;;;;;;;0.40;0.30;;;37.50;70.10;;;;;;5028252;28;20466;-80
2023/09/11 09:00:11;;;;;;;0.40;0.30;;;36.80;67.50;;;;;;5036769;28;20439;-81
2023/09/11 09:02:38;;;;;;;0.40;0.30;;;36.00;70.00;;;;;;5028636;28;20466;-82
2023/09/11 09:05:06;;;;;;;0.40;0.30;;;36.20;72.00;;;;;;5032528;28;20439;-82
2023/09/11 09:07:34;;;;;;;0.40;0.30;;;36.10;70.20;;;;;;5033307;28;20538;-82
2023/09/11 09:10:03;;;;;;;0.40;0.30;;;36.60;72.30;;;;;;5016936;28;20486;-82
2023/09/11 09:12:30;;;;;;;0.80;0.80;;;37.10;72.00;;;;;;5032484;28;20478;-82
2023/09/11 09:14:58;;;;;;;0.67;0.60;;;37.30;66.00;;;;;;5032356;28;20446;-81
2023/09/11 09:17:25;;;;;;;0.40;0.30;;;36.50;64.10;;;;;;5023481;28;20814;-82
2023/09/11 09:19:52;;;;;;;0.50;0.40;;;36.00;65.00;;;;;;5036052;28;20816;-81
2023/09/11 09:22:18;;;;;;;0.53;0.53;;;35.60;66.50;;;;;;5036438;28;20457;-80
2023/09/11 09:24:51;;;;;;;0.40;0.30;;;35.10;67.80;;;;;;5034059;28;20465;-81
2023/09/11 09:27:18;;;;;;;1.60;1.60;;;35.20;69.50;;;;;;5030639;28;20874;-81
2023/09/11 09:29:47;;;;;;;0.50;0.30;;;35.00;67.60;;;;;;5035494;28;20478;-82
2023/09/11 09:32:16;;;;;;;0.40;0.30;;;35.00;68.90;;;;;;5036620;28;20451;-81
2023/09/11 09:34:49;;;;;;;0.40;0.30;;;35.60;68.80;;;;;;5036201;28;20930;-81
2023/09/11 09:37:18;;;;;;;0.40;0.30;;;36.40;71.90;;;;;;5023609;28;20459;-82
2023/09/11 09:39:46;;;;;;;0.40;0.30;;;36.60;68.40;;;;;;5033171;28;20460;-82
2023/09/11 09:42:13;;;;;;;0.40;0.30;;;36.90;67.80;;;;;;5029102;28;20441;-81
2023/09/11 09:44:42;;;;;;;0.40;0.30;;;36.90;64.70;;;;;;5027831;28;20445;-81
2023/09/11 09:47:10;;;;;;;0.40;0.30;;;36.80;68.00;;;;;;5036235;28;20541;-81
2023/09/11 09:49:45;;;;;;;0.40;0.30;;;37.20;67.20;;;;;;5039661;28;20474;-81
2023/09/11 09:52:13;;;;;;;0.60;0.60;;;37.80;65.30;;;;;;5021637;28;20558;-82
2023/09/11 09:54:45;;;;;;;0.40;0.30;;;38.10;64.50;;;;;;5028668;28;20449;-82
2023/09/11 09:57:13;;;;;;;1.17;1.13;;;38.50;64.40;;;;;;5025293;28;20462;-82
2023/09/11 09:59:40;;;;;;;0.87;0.87;;;38.20;62.00;;;;;;5040272;28;20447;-81
2023/09/11 10:02:10;;;;;;;0.40;0.30;;;37.70;64.90;;;;;;5012273;28;20459;-82
2023/09/11 10:04:37;;;;;;;0.40;0.30;;;38.00;65.90;;;;;;5036067;28;20438;-82
2023/09/11 10:07:05;;;;;;;0.40;0.30;;;38.30;63.40;;;;;;5036483;28;20466;-82
2023/09/11 10:09:33;;;;;;;0.40;0.30;;;38.30;65.10;;;;;;5028492;28;20482;-81
2023/09/11 10:12:04;;;;;;;0.70;0.70;;;37.90;65.60;;;;;;5029407;28;20438;-82
2023/09/11 10:14:31;;;;;;;0.40;0.30;;;37.70;62.80;;;;;;5032205;28;20442;-81
2023/09/11 10:16:59;;;;;;;0.83;0.83;;;37.80;63.00;;;;;;5038702;28;20811;-82
2023/09/11 10:19:29;;;;;;;0.40;0.30;;;37.90;63.10;;;;;;5039439;28;20438;-82
2023/09/11 10:21:55;;;;;;;0.40;0.30;;;37.80;63.10;;;;;;5023141;28;20447;-82
2023/09/11 10:24:23;;;;;;;0.40;0.30;;;38.40;64.40;;;;;;5039351;28;20447;-83
2023/09/11 10:26:55;;;;;;;0.40;0.30;;;39.20;63.70;;;;;;5038116;28;20815;-82
2023/09/11 10:29:38;;;;;;;0.40;0.30;;;39.70;61.90;;;;;;5024837;28;20474;-83
2023/09/11 10:32:10;;;;;;;0.50;0.50;;;40.10;62.10;;;;;;5031283;28;20468;-83
2023/09/11 10:34:38;;;;;;;0.40;0.30;;;40.10;59.80;;;;;;5039310;28;21016;-84
2023/09/11 10:37:06;;;;;;;0.40;0.30;;;40.40;62.80;;;;;;5023879;28;20483;-83
2023/09/11 10:39:36;;;;;;;0.50;0.40;;;41.00;59.10;;;;;;5018356;28;20436;-82
2023/09/11 10:42:03;;;;;;;0.50;0.50;;;40.30;57.60;;;;;;5034564;28;20438;-83
2023/09/11 10:44:35;;;;;;;0.40;0.30;;;39.20;58.80;;;;;;5022799;28;20447;-82
2023/09/11 10:47:03;;;;;;;0.40;0.30;;;38.70;59.80;;;;;;5034027;28;20476;-82
2023/09/11 10:49:35;;;;;;;0.40;0.30;;;38.40;61.20;;;;;;5027083;28;20529;-81
2023/09/11 10:52:05;;;;;;;0.60;0.60;;;38.60;62.50;;;;;;5027066;28;20447;-82
2023/09/11 10:54:32;;;;;;;0.40;0.30;;;39.10;62.10;;;;;;5032621;28;20439;-81
2023/09/11 10:57:00;;;;;;;0.40;0.30;;;38.70;60.60;;;;;;5026054;28;20475;-79
2023/09/11 10:59:27;;;;;;;0.40;0.30;;;38.50;61.00;;;;;;5030959;28;20440;-82
2023/09/11 11:01:54;;;;;;;0.40;0.30;;;38.50;63.00;;;;;;5025108;28;20530;-81
2023/09/11 11:04:23;;;;;;;3.53;3.23;;;38.90;61.10;;;;;;5022479;28;21005;-82
2023/09/11 11:06:55;;;;;;;0.50;0.40;;;39.10;61.10;;;;;;5037641;28;21003;-82
2023/09/11 11:09:30;;;;;;;0.40;0.30;;;39.60;60.10;;;;;;5028673;28;20485;-82
2023/09/11 11:12:00;;;;;;;1.43;1.33;;;39.60;59.80;;;;;;5020495;28;20431;-81
2023/09/11 11:14:27;;;;;;;2.70;2.00;;;39.50;59.00;;;;;;5039020;28;20847;-81
2023/09/11 11:17:00;;;;;;;0.40;0.40;;;39.20;59.40;;;;;;5029381;28;20462;-79
2023/09/11 11:19:29;;;;;;;0.97;0.97;;;38.80;59.30;;;;;;5032753;28;20435;-81
2023/09/11 11:21:56;;;;;;;0.60;0.47;;;38.10;59.30;;;;;;5014480;28;20458;-82
2023/09/11 11:24:25;;;;;;;0.50;0.50;;;37.60;62.20;;;;;;5029965;28;20457;-83
2023/09/11 11:26:56;;;;;;;2.37;2.20;;;37.40;61.20;;;;;;5036661;28;20489;-82
2023/09/11 11:29:24;;;;;;;0.40;0.30;;;37.50;64.60;;;;;;5017061;28;20483;-83
2023/09/11 11:31:54;;;;;;;0.40;0.30;;;38.00;62.40;;;;;;5016714;28;20444;-81
2023/09/11 11:34:25;;;;;;;0.50;0.50;;;38.00;62.50;;;;;;5036806;28;20439;-82
2023/09/11 11:36:54;;;;;;;0.40;0.30;;;38.00;62.70;;;;;;5028280;28;20501;-82
2023/09/11 11:39:22;;;;;;;2.60;1.30;;;38.20;63.20;;;;;;5023831;28;20451;-81
2023/09/11 11:41:50;;;;;;;0.40;0.30;;;38.10;60.90;;;;;;5016684;28;20926;-83
2023/09/11 11:44:18;;;;;;;0.40;0.30;;;38.00;61.90;;;;;;5035647;28;20825;-83
2023/09/11 11:46:46;;;;;;;0.40;0.40;;;38.20;63.10;;;;;;5029404;28;20466;-83
2023/09/11 11:49:18;;;;;;;0.40;0.30;;;38.60;62.40;;;;;;5036284;28;20478;-81
2023/09/11 11:51:45;;;;;;;0.93;0.50;;;39.00;60.70;;;;;;5036307;28;20441;-83
2023/09/11 11:54:22;;;;;;;0.40;0.30;;;39.20;61.50;;;;;;5036130;28;20480;-82
2023/09/11 11:56:48;;;;;;;0.40;0.30;;;39.70;61.90;;;;;;5036692;28;20552;-82
2023/09/11 11:59:15;;;;;;;0.40;0.30;;;39.50;61.20;;;;;;5033402;28;20505;-83
2023/09/11 12:01:45;;;;;;;0.40;0.30;;;39.60;60.20;;;;;;5025452;28;20444;-82
2023/09/11 12:04:12;;;;;;;0.40;0.40;;;39.20;59.80;;;;;;5032799;28;20954;-82
2023/09/11 12:06:39;;;;;;;5.93;2.30;;;39.20;60.30;;;;;;5030575;28;20465;-80
2023/09/11 12:09:06;;;;;;;3.37;3.07;;;38.90;60.10;;;;;;5038690;28;20482;-82
2023/09/11 12:11:33;;;;;;;2.10;0.60;;;38.40;61.80;;;;;;5037017;28;20438;-82
2023/09/11 12:14:00;;;;;;;1.37;1.27;;;38.00;62.00;;;;;;5035572;28;20442;-81
2023/09/11 12:16:31;;;;;;;0.40;0.30;;;38.10;64.10;;;;;;5029667;28;20463;-82
2023/09/11 12:18:59;;;;;;;0.40;0.30;;;38.20;64.40;;;;;;5018962;28;20447;-82
2023/09/11 12:21:26;;;;;;;0.40;0.30;;;38.70;66.80;;;;;;5016260;28;20445;-82
2023/09/11 12:23:56;;;;;;;0.40;0.30;;;39.30;64.70;;;;;;5016427;28;20446;-82
2023/09/11 12:26:23;;;;;;;0.40;0.30;;;40.20;61.10;;;;;;5024839;28;20466;-82
2023/09/11 12:28:49;;;;;;;0.40;0.30;;;40.20;59.40;;;;;;5024655;28;20448;-83
2023/09/11 12:31:19;;;;;;;0.93;0.60;;;39.30;59.50;;;;;;5034152;28;20447;-82
2023/09/11 12:33:52;;;;;;;0.40;0.37;;;38.70;59.90;;;;;;5035048;28;20913;-82
2023/09/11 12:36:21;;;;;;;0.40;0.30;;;38.60;61.80;;;;;;5032618;28;20992;-82
2023/09/11 12:38:48;;;;;;;0.40;0.30;;;39.00;63.20;;;;;;5019014;28;20855;-82
2023/09/11 12:41:15;;;;;;;1.43;0.97;;;39.10;61.50;;;;;;5030047;28;20438;-83
2023/09/11 12:43:42;;;;;;;0.70;0.70;;;39.30;63.10;;;;;;5025645;28;20448;-83
2023/09/11 12:46:10;;;;;;;7.30;0.83;;;39.20;59.70;;;;;;5035405;28;20462;-83
2023/09/11 12:48:41;;;;;;;0.80;0.80;;;38.60;60.30;;;;;;5035862;28;20631;-83
2023/09/11 12:51:08;;;;;;;0.40;0.30;;;38.70;62.10;;;;;;5035312;28;20848;-83